createdAt,value
2022-12-12T00:00:34.595Z,97482.28
2022-12-12T00:04:36.702Z,97483.97
2022-12-12T00:08:39.244Z,97479.50
2022-12-12T00:12:41.604Z,97481.75
2022-12-12T00:16:43.620Z,97484.75
2022-12-12T00:20:45.934Z,97490.44
2022-12-12T00:24:48.564Z,97493.41
2022-12-12T00:28:50.931Z,97488.69
2022-12-12T00:32:53.140Z,97484.09
2022-12-12T00:36:55.192Z,97486.66
2022-12-12T00:40:59.872Z,97487.56
2022-12-12T00:45:02.724Z,97487.56
2022-12-12T00:49:05.057Z,97493.72
2022-12-12T00:53:07.140Z,97488.94
2022-12-12T00:57:09.223Z,97490.88
2022-12-12T01:01:17.280Z,97493.66
2022-12-12T01:05:20.225Z,97502.50
2022-12-12T01:09:22.698Z,97512.81
2022-12-12T01:13:25.381Z,97512.19
2022-12-12T01:17:27.487Z,97522.16
2022-12-12T01:21:30.565Z,97535.53
2022-12-12T01:25:32.964Z,97538.47
2022-12-12T01:29:35.613Z,97536.41
2022-12-12T01:33:38.496Z,97545.09
2022-12-12T01:37:41.642Z,97550.63
2022-12-12T01:41:43.892Z,97551.16
2022-12-12T01:45:58.709Z,97551.09
2022-12-12T01:50:06.551Z,97555.00
2022-12-12T01:54:30.409Z,97562.66
2022-12-12T01:58:33.355Z,97572.50
2022-12-12T02:02:36.888Z,97577.28
2022-12-12T02:06:39.623Z,97581.38
2022-12-12T02:10:43.864Z,97572.13
2022-12-12T02:14:51.552Z,97568.47
2022-12-12T02:19:18.513Z,97566.63
2022-12-12T02:23:41.666Z,97568.31
2022-12-12T02:28:29.760Z,97567.34
2022-12-12T02:32:47.522Z,97573.63
2022-12-12T02:37:10.611Z,97577.63
2022-12-12T02:41:26.754Z,97582.03
2022-12-12T02:45:37.191Z,97574.03
2022-12-12T02:49:47.918Z,97569.94
2022-12-12T02:53:50.000Z,97570.75
2022-12-12T02:57:53.779Z,97567.31
2022-12-12T03:02:15.220Z,97573.59
2022-12-12T03:06:50.424Z,97572.25
2022-12-12T03:10:55.843Z,97570.75
2022-12-12T03:15:00.973Z,97573.84
2022-12-12T03:19:06.171Z,97578.28
2022-12-12T03:23:14.806Z,97582.25
2022-12-12T03:27:31.648Z,97588.22
2022-12-12T03:31:38.461Z,97585.78
2022-12-12T03:35:48.469Z,97588.19
2022-12-12T03:39:56.084Z,97594.78
2022-12-12T03:44:05.603Z,97586.41
2022-12-12T03:48:08.350Z,97593.84
2022-12-12T03:52:17.122Z,97586.69
2022-12-12T03:56:30.776Z,97586.13
2022-12-12T04:00:37.876Z,97579.53
2022-12-12T04:04:55.804Z,97577.50
2022-12-12T04:09:18.043Z,97594.09
2022-12-12T04:14:09.941Z,97587.97
2022-12-12T04:18:29.350Z,97593.31
2022-12-12T04:22:58.256Z,97601.19
2022-12-12T04:27:21.085Z,97600.84
2022-12-12T04:31:27.158Z,97605.19
2022-12-12T04:35:35.916Z,97620.59
2022-12-12T04:39:41.542Z,97610.22
2022-12-12T04:43:47.844Z,97611.56
2022-12-12T04:47:53.030Z,97610.31
2022-12-12T04:52:08.830Z,97614.28
2022-12-12T04:56:14.174Z,97623.56
2022-12-12T05:00:17.383Z,97619.66
2022-12-12T05:04:31.236Z,97625.88
2022-12-12T05:08:38.337Z,97612.09
2022-12-12T05:12:48.477Z,97624.63
2022-12-12T05:16:54.948Z,97626.72
2022-12-12T05:20:57.028Z,97633.38
2022-12-12T05:24:59.070Z,97639.00
2022-12-12T05:29:06.970Z,97636.34
2022-12-12T05:33:09.691Z,97639.06
2022-12-12T05:37:11.838Z,97652.88
2022-12-12T05:41:14.156Z,97664.72
2022-12-12T05:45:16.278Z,97671.63
2022-12-12T05:49:18.405Z,97678.72
2022-12-12T05:53:21.473Z,97681.06
2022-12-12T05:57:23.704Z,97692.59
2022-12-12T06:01:25.849Z,97700.09
2022-12-12T06:05:28.100Z,97699.28
2022-12-12T06:09:30.140Z,97677.69
2022-12-12T06:13:32.223Z,97679.03
2022-12-12T06:17:34.590Z,97695.34
2022-12-12T06:21:40.724Z,97701.56
2022-12-12T06:25:43.541Z,97695.88
2022-12-12T06:29:45.805Z,97680.59
2022-12-12T06:33:47.897Z,97681.28
2022-12-12T06:37:50.000Z,97683.13
2022-12-12T06:41:52.850Z,97689.88
2022-12-12T06:46:01.603Z,97691.13
2022-12-12T06:50:03.936Z,97704.81
2022-12-12T06:54:06.052Z,97708.91
2022-12-12T06:58:08.252Z,97713.34
2022-12-12T07:02:12.163Z,97723.69
2022-12-12T07:06:14.593Z,97729.06
2022-12-12T07:10:21.076Z,97730.91
2022-12-12T07:14:25.238Z,97745.09
2022-12-12T07:18:28.014Z,97741.09
2022-12-12T07:22:30.160Z,97762.25
2022-12-12T07:26:32.369Z,97758.03
2022-12-12T07:30:35.083Z,97762.41
2022-12-12T07:34:37.559Z,97761.16
2022-12-12T07:38:40.049Z,97756.22
2022-12-12T07:42:42.448Z,97765.81
2022-12-12T07:46:44.789Z,97766.81
2022-12-12T07:50:46.991Z,97785.38
2022-12-12T07:54:49.168Z,97789.47
2022-12-12T07:58:52.997Z,97792.91
2022-12-12T08:02:55.206Z,97781.47
2022-12-12T08:07:04.042Z,97791.53
2022-12-12T08:11:13.607Z,97791.44
2022-12-12T08:15:18.844Z,97802.50
2022-12-12T08:19:21.189Z,97805.69
2022-12-12T08:23:23.571Z,97809.56
2022-12-12T08:27:25.880Z,97822.00
2022-12-12T08:31:28.896Z,97824.47
2022-12-12T08:35:32.621Z,97817.84
2022-12-12T08:39:34.819Z,97831.22
2022-12-12T08:43:38.280Z,97824.94
2022-12-12T08:47:40.944Z,97832.81
2022-12-12T08:51:43.497Z,97833.81
2022-12-12T08:55:45.874Z,97837.44
2022-12-12T08:59:48.022Z,97826.63
2022-12-12T09:03:51.834Z,97831.38
2022-12-12T09:07:53.957Z,97830.44
2022-12-12T09:11:56.499Z,97829.66
2022-12-12T09:15:58.914Z,97835.25
2022-12-12T09:20:01.179Z,97830.53
2022-12-12T09:24:03.640Z,97821.84
2022-12-12T09:28:05.885Z,97806.03
2022-12-12T09:32:08.427Z,97800.81
2022-12-12T09:36:15.161Z,97794.81
2022-12-12T09:40:21.893Z,97792.41
2022-12-12T09:44:26.501Z,97786.47
2022-12-12T09:48:38.826Z,97793.66
2022-12-12T09:52:42.204Z,97791.06
2022-12-12T09:56:54.838Z,97798.47
2022-12-12T10:01:29.288Z,97797.16
2022-12-12T10:06:13.864Z,97792.09
2022-12-12T10:10:41.577Z,97788.66
2022-12-12T10:14:50.797Z,97794.25
2022-12-12T10:19:08.233Z,97792.34
2022-12-12T10:23:36.216Z,97797.94
2022-12-12T10:27:38.707Z,97777.59
2022-12-12T10:32:05.731Z,97784.84
2022-12-12T10:36:33.298Z,97780.34
2022-12-12T10:40:48.365Z,97779.63
2022-12-12T10:44:56.371Z,97778.16
2022-12-12T10:48:58.559Z,97775.59
2022-12-12T10:53:07.609Z,97780.91
2022-12-12T10:57:19.535Z,97792.34
2022-12-12T11:06:06.344Z,97787.28
2022-12-12T11:10:26.881Z,97770.91
2022-12-12T11:14:39.796Z,97764.81
2022-12-12T11:18:57.363Z,97758.94
2022-12-12T11:22:59.729Z,97756.31
2022-12-12T11:27:07.704Z,97742.06
2022-12-12T11:31:14.824Z,97740.84
2022-12-12T11:35:36.478Z,97731.97
2022-12-12T11:39:43.983Z,97737.38
2022-12-12T11:43:49.186Z,97732.06
2022-12-12T11:47:51.412Z,97729.69
2022-12-12T11:51:54.032Z,97729.97
2022-12-12T11:56:05.211Z,97723.09
2022-12-12T12:00:15.743Z,97722.84
2022-12-12T12:04:24.111Z,97733.44
2022-12-12T12:08:40.534Z,97723.09
2022-12-12T12:13:24.821Z,97722.25
2022-12-12T12:17:48.111Z,97719.53
2022-12-12T12:22:28.201Z,97705.56
2022-12-12T12:26:49.711Z,97699.88
2022-12-12T12:30:55.104Z,97687.09
2022-12-12T12:35:31.336Z,97687.78
2022-12-12T12:40:02.265Z,97711.25
2022-12-12T12:44:58.303Z,97709.72
2022-12-12T12:49:11.723Z,97707.00
2022-12-12T12:53:38.768Z,97718.81
2022-12-12T12:57:52.895Z,97712.09
2022-12-12T13:01:57.912Z,97702.13
2022-12-12T13:06:05.279Z,97712.53
2022-12-12T13:10:11.605Z,97708.59
2022-12-12T13:14:30.379Z,97698.28
2022-12-12T13:18:45.022Z,97691.06
2022-12-12T13:23:24.149Z,97708.78
2022-12-12T13:27:46.148Z,97702.72
2022-12-12T13:31:57.537Z,97698.91
2022-12-12T13:36:12.556Z,97689.41
2022-12-12T13:40:28.643Z,97701.34
2022-12-12T13:44:48.381Z,97706.66
2022-12-12T13:49:07.451Z,97709.06
2022-12-12T13:53:09.804Z,97706.94
2022-12-12T13:57:14.706Z,97711.44
2022-12-12T14:01:30.094Z,97711.69
2022-12-12T14:05:42.571Z,97714.63
2022-12-12T14:09:50.763Z,97709.81
2022-12-12T14:14:07.651Z,97702.16
2022-12-12T14:18:25.880Z,97698.94
2022-12-12T14:22:50.590Z,97705.03
2022-12-12T14:26:53.145Z,97704.00
2022-12-12T14:30:59.145Z,97694.22
2022-12-12T14:35:29.312Z,97683.88
2022-12-12T14:39:50.607Z,97682.28
2022-12-12T14:44:34.977Z,97683.31
2022-12-12T14:48:31.259Z,97696.00
2022-12-12T14:52:33.457Z,97715.34
2022-12-12T14:56:41.107Z,97709.25
2022-12-12T15:00:56.823Z,97690.97
2022-12-12T15:05:04.875Z,97685.66
2022-12-12T15:09:31.748Z,97707.59
2022-12-12T15:13:33.905Z,97718.66
2022-12-12T15:17:49.636Z,97723.69
2022-12-12T15:21:52.324Z,97728.22
2022-12-12T15:25:55.845Z,97737.22
2022-12-12T15:29:59.736Z,97739.84
2022-12-12T15:34:01.838Z,97736.91
2022-12-12T15:38:11.225Z,97746.09
2022-12-12T15:42:14.674Z,97757.13
2022-12-12T15:46:17.237Z,97759.63
2022-12-12T15:50:23.512Z,97758.72
2022-12-12T15:54:25.654Z,97761.59
2022-12-12T15:58:31.556Z,97764.22
2022-12-12T16:02:38.521Z,97761.09
2022-12-12T16:06:44.212Z,97759.50
2022-12-12T16:10:54.155Z,97771.25
2022-12-12T16:14:56.506Z,97785.38
2022-12-12T16:18:58.779Z,97795.75
2022-12-12T16:23:39.479Z,97799.97
2022-12-12T16:27:42.002Z,97798.50
2022-12-12T16:31:45.873Z,97792.09
2022-12-12T16:35:48.124Z,97788.13
2022-12-12T16:39:50.239Z,97782.56
2022-12-12T16:43:52.752Z,97793.00
2022-12-12T16:47:55.439Z,97794.66
2022-12-12T16:51:57.646Z,97791.13
2022-12-12T16:55:59.846Z,97792.44
2022-12-12T17:00:03.650Z,97783.81
2022-12-12T17:04:07.783Z,97795.22
2022-12-12T17:08:10.976Z,97790.25
2022-12-12T17:12:39.824Z,97794.59
2022-12-12T17:16:42.324Z,97783.19
2022-12-12T17:20:45.389Z,97787.75
2022-12-12T17:24:47.452Z,97796.22
2022-12-12T17:28:49.629Z,97800.13
2022-12-12T17:37:11.087Z,97804.44
2022-12-12T17:41:14.380Z,97799.66
2022-12-12T17:45:17.231Z,97800.38
2022-12-12T17:49:19.449Z,97815.88
2022-12-12T17:53:22.805Z,97813.91
2022-12-12T17:57:25.599Z,97819.72
2022-12-12T18:01:29.929Z,97813.69
2022-12-12T18:05:32.347Z,97816.75
2022-12-12T18:09:36.797Z,97808.22
2022-12-12T18:13:40.808Z,97802.38
2022-12-12T18:17:43.359Z,97816.19
2022-12-12T18:22:02.264Z,97835.19
2022-12-12T18:26:10.477Z,97836.44
2022-12-12T18:30:13.616Z,97828.19
2022-12-12T18:34:16.285Z,97825.59
2022-12-12T18:43:39.833Z,97840.28
2022-12-12T18:47:42.467Z,97839.00
2022-12-12T18:51:46.297Z,97835.66
2022-12-12T18:55:49.169Z,97842.63
2022-12-12T18:59:51.294Z,97836.44
2022-12-12T19:04:04.544Z,97840.13
2022-12-12T19:08:17.717Z,97835.69
2022-12-12T19:12:19.918Z,97818.13
2022-12-12T19:16:22.504Z,97836.34
2022-12-12T19:20:25.365Z,97838.88
2022-12-12T19:24:27.500Z,97835.16
2022-12-12T19:28:29.814Z,97829.03
2022-12-12T19:32:32.537Z,97835.88
2022-12-12T19:36:36.019Z,97839.94
2022-12-12T19:40:38.118Z,97844.72
2022-12-12T19:44:43.503Z,97841.31
2022-12-12T19:48:46.197Z,97843.13
2022-12-12T19:52:48.411Z,97838.34
2022-12-12T19:56:51.166Z,97851.19
2022-12-12T20:00:53.409Z,97852.31
2022-12-12T20:04:55.627Z,97852.72
2022-12-12T20:09:00.476Z,97842.81
2022-12-12T20:13:03.041Z,97849.84
2022-12-12T20:17:05.381Z,97833.88
2022-12-12T20:21:09.217Z,97834.91
2022-12-12T20:25:11.341Z,97827.28
2022-12-12T20:29:14.960Z,97838.88
2022-12-12T20:33:17.022Z,97844.28
2022-12-12T20:37:20.286Z,97840.13
2022-12-12T20:41:25.542Z,97836.31
2022-12-12T20:45:27.667Z,97836.84
2022-12-12T20:49:30.758Z,97821.22
2022-12-12T20:53:36.577Z,97834.16
2022-12-12T20:57:39.428Z,97830.34
2022-12-12T21:01:41.735Z,97832.47
2022-12-12T21:05:44.076Z,97820.00
2022-12-12T21:09:46.505Z,97821.59
2022-12-12T21:13:51.052Z,97827.28
2022-12-12T21:17:53.280Z,97817.94
2022-12-12T21:21:55.881Z,97810.75
2022-12-12T21:25:58.129Z,97819.53
2022-12-12T21:30:00.435Z,97812.75
2022-12-12T21:34:03.766Z,97810.22
2022-12-12T21:38:05.903Z,97803.03
2022-12-12T21:42:08.311Z,97797.16
2022-12-12T21:46:17.865Z,97790.41
2022-12-12T21:50:20.889Z,97790.16
2022-12-12T21:54:24.783Z,97793.66
2022-12-12T21:58:27.098Z,97787.91
2022-12-12T22:02:29.281Z,97778.47
2022-12-12T22:06:34.364Z,97787.44
2022-12-12T22:10:39.785Z,97791.00
2022-12-12T22:14:42.076Z,97806.50
2022-12-12T22:18:48.168Z,97806.69
2022-12-12T22:22:50.281Z,97817.06
2022-12-12T22:26:52.453Z,97824.25
2022-12-12T22:30:55.685Z,97837.66
2022-12-12T22:34:58.633Z,97845.97
2022-12-12T22:39:01.475Z,97848.38
2022-12-12T22:43:03.738Z,97849.31
2022-12-12T22:47:06.074Z,97852.38
2022-12-12T22:51:16.778Z,97855.63
2022-12-12T22:55:19.051Z,97851.16
2022-12-12T22:59:22.135Z,97869.38
2022-12-12T23:03:24.322Z,97861.94
2022-12-12T23:07:26.539Z,97858.59
2022-12-12T23:11:31.105Z,97861.00
2022-12-12T23:15:35.871Z,97857.94
2022-12-12T23:19:38.036Z,97853.72
2022-12-12T23:23:40.718Z,97851.78
2022-12-12T23:27:42.822Z,97854.19
2022-12-12T23:31:45.220Z,97842.47
2022-12-12T23:35:52.100Z,97830.34
2022-12-12T23:39:54.731Z,97816.84
2022-12-12T23:43:57.118Z,97828.22
2022-12-12T23:47:59.224Z,97807.00
2022-12-12T23:52:02.662Z,97801.97
2022-12-12T23:56:05.133Z,97805.56
